Weather observations for the past three days for
Peoria - General Downing-Peoria International Airport
Metric (Imperial)
Date Time (cdt) Wind (kph) Vis. (km) Weather Sky Cond. Temperature (ºC) Relative Humidity Wind Chill (°C) Heat Index (°C) Pressure Precipitation (cm)
Air Dwpt 6 hour altimeter (cm) sea level (mb) 1 hr 3 hr 6 hr
Max. Min.
04 02:54 SW 9 16.09 Fair CLR 25.6 21.1 76% 27 76 1012.4
04 01:54 Calm 16.09 Fair CLR 26.1 21.7 77% 28 76.05 1013.0
04 00:54 S 6 16.09 Fair CLR 26.7 22.2 32.2 26.1 76% 29 76.05 1013.0
03 23:54 S 6 16.09 Fair CLR 27.2 22.8 77% 30 76.05 1013.1
03 22:54 Calm 16.09 Fair CLR 26.7 22.8 79% 29 76.02 1013.0
03 21:54 Calm 16.09 Fair CLR 27.2 22.8 77% 30 76.02 1012.7
03 20:54 S 7 16.09 Fair CLR 29.4 22.2 65% 33 75.95 1011.9
03 19:54 SW 7 16.09 Fair CLR 30.6 23.3 65% 35 75.95 1011.6
03 18:54 SW 7 16.09 Fair CLR 32.2 23.9 35.6 32.2 62% 38 75.92 1011.6
03 17:54 SW 11 16.09 Fair CLR 33.9 22.8 52% 39 75.95 1011.8
03 16:54 W 11 16.09 A Few Clouds FEW110 35.6 21.7 44% 40 75.97 1012.1
03 15:54 W 17 16.09 Fair CLR 35.6 21.7 44% 40 75.97 1012.3
03 14:54 SW 15 16.09 Fair CLR 35.6 22.2 46% 40 76 1012.3
03 13:54 SW 15 16.09 Partly Cloudy SCT110 35 22.8 49% 40 76.02 1012.8
03 12:54 Vrbl 11 16.09 Fair CLR 34.4 22.8 34.4 23.9 51% 40 76.07 1013.3
03 11:54 SW 11 16.09 Mostly Cloudy BKN120 32.8 23.3 57% 38 76.1 1013.7
03 10:54 SW 19 16.09 Fair CLR 31.7 22.2 57% 36 76.12 1014.0
03 09:54 SW 9 16.09 Fair CLR 29.4 22.2 65% 33 76.1 1013.8
03 08:54 SW 15 16.09 Fair CLR 27.8 21.7 69% 30 76.1 1013.8
03 06:54 S 7 16.09 Fair CLR 23.9 21.1 26.7 23.9 84% 24 76.1 1013.8
03 05:54 S 9 16.09 Fair CLR 23.9 21.1 84% 24 76.07 1013.3
03 04:54 S 6 16.09 Fair CLR 24.4 21.1 82% 25 76.05 1013.3
03 03:54 S 7 16.09 Fair CLR 25 21.7 82% 26 76.05 1013.3
03 02:54 S 9 16.09 Fair CLR 25 21.7 82% 26 76.07 1013.3
03 01:54 SW 9 16.09 Fair CLR 26.1 21.7 77% 28 76.07 1013.4
03 00:54 S 7 16.09 Fair CLR 27.2 21.7 31.7 26.7 72% 29 76.07 1013.4
02 23:54 SW 7 16.09 Fair CLR 27.2 23.3 79% 30 76.05 1013.2
02 22:54 S 11 16.09 Fair CLR 27.8 22.8 74% 31 76.05 1013.0
02 21:54 S 6 16.09 Fair CLR 28.9 22.8 70% 32 76.05 1013.1
02 20:54 Calm 16.09 Fair CLR 28.9 23.9 74% 33 76.02 1013.0
02 19:54 Calm 16.09 Fair CLR 30.6 23.3 65% 35 76 1012.7
02 18:54 S 9 16.09 Fair CLR 31.7 23.9 34.4 31.7 63% 37 76.02 1012.8
02 17:54 SW 13 16.09 Fair CLR 33.3 22.8 54% 38 76.02 1012.7
02 15:54 W 13 16.09 Fair CLR 34.4 22.8 51% 40 76.07 1013.4
02 14:54 SW 17 16.09 Fair CLR 34.4 22.8 51% 40 76.1 1013.8
02 13:54 SW 13 16.09 Fair CLR 33.9 23.3 54% 40 76.12 1014.1
02 12:54 W 13 16.09 Fair CLR 33.3 22.8 33.3 23.3 54% 38 76.17 1014.7
02 11:54 W 13 16.09 Fair CLR 32.2 22.8 58% 37 76.2 1015.0
02 10:54 SW 11 16.09 Fair CLR 30.6 22.2 61% 34 76.17 1015.0
02 09:54 SW 13 16.09 Fair CLR 28.9 22.2 67% 32 76.17 1014.9
02 08:54 SW 11 16.09 Fair CLR 26.7 21.7 74% 29 76.17 1014.8
02 07:54 S 11 16.09 A Few Clouds FEW100 24.4 21.1 82% 25 76.2 1015.1
02 06:54 S 6 16.09 Fair CLR 23.3 20.6 26.7 23.3 85% 76.17 1014.9
02 05:54 Calm 16.09 Fair CLR 23.9 20.6 82% 24 76.15 1014.6
02 04:54 S 7 16.09 Fair CLR 23.9 20.6 82% 24 76.15 1014.4
02 03:54 S 7 16.09 Fair CLR 23.9 20.6 82% 24 76.12 1014.3
02 02:54 S 9 16.09 Fair CLR 24.4 20.6 79% 25 76.12 1014.0
02 01:54 S 7 16.09 Fair CLR 25.6 20.6 74% 27 76.12 1014.3
02 00:54 SW 7 16.09 Fair CLR 26.1 21.7 32.2 26.1 77% 28 76.15 1014.6
01 23:54 S 7 16.09 A Few Clouds FEW085 27.2 21.7 72% 29 76.15 1014.5
01 22:54 S 9 16.09 A Few Clouds FEW085 28.9 21.7 65% 32 76.15 1014.4
01 21:54 Calm 16.09 Partly Cloudy SCT085 27.8 22.2 72% 30 76.15 1014.4
01 20:54 Calm 16.09 Fair CLR 29.4 22.2 65% 33 76.12 1014.1
01 19:54 Calm 16.09 Fair CLR 30.6 22.8 63% 35 76.07 1013.7
01 18:54 S 6 16.09 Fair CLR 32.2 22.8 35 32.2 58% 37 76.07 1013.7
01 17:54 SW 9 16.09 Fair CLR 33.9 22.8 52% 39 76.1 1013.9
01 16:54 SW 11 16.09 Fair CLR 34.4 21.7 48% 38 76.1 1013.9
01 15:54 SW 15 16.09 Fair CLR 34.4 21.7 48% 38 76.12 1014.0
01 14:54 SW 17 16.09 Fair CLR 35 20.6 43% 38 76.12 1014.3
01 13:54 W 11 16.09 Fair CLR 34.4 20.6 44% 37 76.17 1014.8
01 12:54 W 17 16.09 Fair CLR 33.9 20 33.9 22.8 44% 36 76.2 1015.1
01 11:54 SW 15 16.09 Fair CLR 32.2 22.2 56% 36 76.23 1015.6
01 10:54 SW 13 16.09 Fair CLR 31.1 21.7 57% 34 76.25 1015.8
01 09:54 SW 15 16.09 Fair CLR 28.9 21.1 63% 31 76.25 1015.7
01 08:54 SW 9 16.09 Fair CLR 27.2 21.1 69% 29 76.23 1015.6
01 07:54 SW 7 16.09 Fair CLR 24.4 21.1 82% 25 76.23 1015.6
01 06:54 S 7 16.09 Fair CLR 22.8 21.1 25.6 22.8 90% 76.2 1015.1
01 05:54 SW 6 16.09 Fair CLR 23.3 21.1 88% 76.15 1014.5
01 04:54 S 7 16.09 Fair CLR 23.3 20.6 85% 76.15 1014.4
01 03:54 SW 7 16.09 Fair CLR 23.9 20.6 82% 24 76.12 1014.2
Date Time (cdt) Wind (kph) Vis. (km) Weather Sky Cond. Air Dwpt Max. Min. Relative Humidity Wind Chill (°C) Heat Index (°C) altimeter (cm) sea level (mb) 1 hr 3 hr 6 hr
6 hour
Temperature (ºC) Pressure Precipitation (cm)